»·PEaware :: N1812C KAVX-KSAN

N1812C :: KAVX-KSAN

FLIGHT INFORMATION

Flight Status: Arrived
Operator: Privately registered:
United States
More flights under this callsign
Pilot: David G. (31571)
Aircraft: MOONEY M-20 201 202 205 220 ATS MSE
(M20P)
More flights by this aircraft type
Origin: KAVX Catalina
United States
Destination: KSAN San Diego Intl-Lindbergh
United States
More flights between these airports :: More routes between these airports
Route: +SXC V208 OCN V23 MZB
File this flight plan on PilotEdge
Remarks: TEC route CSTP56
Altitude:
(Current/Filed)
7,000ft
Speed:
(Current/Filed)
150kts
Departed: 24-Oct-20 01:07 PM
Arrived: 24-Oct-20 01:50 PM
Distance/Time
Traveled:
74nm/0:43
Distance/Time
To Go:
Arrived

Flight Plot

Page will automatically refresh every two minutes.


Map Options




Map Legend


Flown Route
Filed Route
Departure Airport
Arrival Airport
Navaid (VOR, NDB)
Fix

Horizontal Profiles

Position Reports

Time Latitude Longitude Heading Altitude Ground
Speed
24-Oct-20 12:56 33.403541 -118.415136 329 1572ft 0kts
24-Oct-20 12:57 33.403541 -118.415136 329 1572ft 0kts
24-Oct-20 12:58 33.403541 -118.415136 329 1572ft 0kts
24-Oct-20 12:59 33.403541 -118.415136 329 1572ft 0kts
24-Oct-20 13:00 33.403541 -118.415136 329 1572ft 0kts
24-Oct-20 13:01 33.403541 -118.415136 329 1572ft 0kts
24-Oct-20 13:02 33.403541 -118.415136 329 1572ft 0kts
24-Oct-20 13:03 33.403541 -118.415136 329 1572ft 0kts
24-Oct-20 13:04 33.403541 -118.415136 329 1572ft 0kts
24-Oct-20 13:05 33.406101 -118.413217 54 1563ft 24kts
24-Oct-20 13:06 33.406442 -118.413369 234 1562ft 51kts
24-Oct-20 13:07 33.388628 -118.432576 167 2868ft 107kts
24-Oct-20 13:08 33.371778 -118.393370 96 3843ft 163kts
24-Oct-20 13:09 33.365734 -118.335733 97 4486ft 172kts
24-Oct-20 13:10 33.357349 -118.276838 101 4990ft 192kts
24-Oct-20 13:11 33.348510 -118.212069 100 4999ft 200kts
24-Oct-20 13:12 33.340159 -118.145962 100 4999ft 200kts
24-Oct-20 13:13 33.331320 -118.081692 102 4998ft 196kts
24-Oct-20 13:14 33.321336 -118.016562 102 4997ft 200kts
24-Oct-20 13:15 33.312470 -117.950772 100 5001ft 198kts
24-Oct-20 13:16 33.304137 -117.885234 100 5002ft 200kts
24-Oct-20 13:17 33.296021 -117.821226 100 5001ft 191kts
24-Oct-20 13:18 33.287927 -117.757475 100 5001ft 197kts
24-Oct-20 13:19 33.279316 -117.694076 102 5002ft 193kts
24-Oct-20 13:20 33.269447 -117.631650 102 5000ft 189kts
24-Oct-20 13:21 33.260371 -117.569242 96 5001ft 190kts
24-Oct-20 13:22 33.255641 -117.506482 96 5001ft 188kts
24-Oct-20 13:23 33.245725 -117.446948 109 5001ft 187kts
24-Oct-20 13:24 33.215497 -117.400736 170 5002ft 184kts
24-Oct-20 13:25 33.166767 -117.385549 171 5000ft 181kts
24-Oct-20 13:26 33.120548 -117.360790 158 4999ft 181kts
24-Oct-20 13:27 33.070947 -117.345590 176 5000ft 182kts
24-Oct-20 13:28 33.021044 -117.334834 163 5000ft 182kts
24-Oct-20 13:29 32.973780 -117.314349 163 5001ft 180kts
24-Oct-20 13:30 32.926109 -117.293616 163 5002ft 183kts
24-Oct-20 13:31 32.878140 -117.272224 160 5003ft 185kts
24-Oct-20 13:33 32.843803 -117.232253 112 5010ft 194kts
24-Oct-20 13:34 32.825838 -117.173760 112 5003ft 190kts
24-Oct-20 13:35 32.807660 -117.115097 112 4999ft 187kts
24-Oct-20 13:36 32.789490 -117.056973 112 5007ft 186kts
24-Oct-20 13:37 32.772644 -117.003038 112 5004ft 159kts
24-Oct-20 13:38 32.758094 -116.956261 112 4997ft 146kts
24-Oct-20 13:39 32.743521 -116.909577 112 4995ft 153kts
24-Oct-20 13:40 32.721877 -116.868225 161 4820ft 159kts
24-Oct-20 13:41 32.682143 -116.862833 241 4048ft 148kts
24-Oct-20 13:42 32.670648 -116.906661 262 4010ft 140kts
24-Oct-20 13:43 32.676199 -116.953242 284 3669ft 152kts
24-Oct-20 13:44 32.687769 -117.000940 284 3236ft 157kts
24-Oct-20 13:45 32.698606 -117.045629 284 2711ft 114kts
24-Oct-20 13:46 32.707436 -117.081993 285 2027ft 107kts
24-Oct-20 13:47 32.714701 -117.114360 285 1676ft 100kts
24-Oct-20 13:48 32.722813 -117.145251 285 1080ft 93kts
24-Oct-20 13:49 32.729719 -117.173569 285 189ft 81kts
24-Oct-20 13:50 32.734037 -117.188075 17 16ft 0kts

Navigation Log

Ident Type
Flight plan parsing failed, navigation log unavailable